createdAt,value
2017-03-08T00:00:50.637Z,926.36
2017-03-08T00:02:04.369Z,926.35
2017-03-08T00:15:10.364Z,926.33
2017-03-08T00:16:24.088Z,926.32
2017-03-08T00:17:37.894Z,926.35
2017-03-08T00:18:51.740Z,926.42
2017-03-08T00:20:05.670Z,926.44
2017-03-08T00:21:19.117Z,926.43
2017-03-08T00:22:32.941Z,926.4
2017-03-08T00:23:46.970Z,926.43
2017-03-08T00:25:00.580Z,926.41
2017-03-08T00:26:13.919Z,926.46
2017-03-08T00:27:27.262Z,926.42
2017-03-08T00:28:40.937Z,926.45
2017-03-08T00:29:54.523Z,926.46
2017-03-08T00:31:08.272Z,926.46
2017-03-08T00:32:22.020Z,926.45
2017-03-08T00:33:35.723Z,926.4
2017-03-08T00:34:49.449Z,926.38
2017-03-08T00:36:03.175Z,926.35
2017-03-08T00:37:16.944Z,926.36
2017-03-08T00:38:30.672Z,926.33
2017-03-08T00:39:44.373Z,926.38
2017-03-08T00:40:57.523Z,926.34
2017-03-08T00:42:10.674Z,926.4
2017-03-08T00:43:24.391Z,926.45
2017-03-08T00:44:38.135Z,926.51
2017-03-08T00:45:51.921Z,926.53
2017-03-08T00:47:05.045Z,926.57
2017-03-08T00:48:18.156Z,926.58
2017-03-08T00:49:31.890Z,926.52
2017-03-08T00:50:45.772Z,926.62
2017-03-08T00:51:59.543Z,926.67
2017-03-08T00:53:12.665Z,926.72
2017-03-08T00:54:26.415Z,926.74
2017-03-08T00:55:40.114Z,926.77
2017-03-08T00:56:53.892Z,926.76
2017-03-08T00:58:07.674Z,926.81
2017-03-08T00:59:20.848Z,926.78
2017-03-08T01:00:34.689Z,926.76
2017-03-08T01:01:47.824Z,926.72
2017-03-08T01:03:01.547Z,926.62
2017-03-08T01:04:15.255Z,926.53
2017-03-08T01:05:28.998Z,926.45
2017-03-08T01:06:42.746Z,926.4
2017-03-08T01:07:56.462Z,926.35
2017-03-08T01:09:10.160Z,926.31
2017-03-08T01:10:22.667Z,926.26
2017-03-08T01:11:36.395Z,926.24
2017-03-08T01:12:50.162Z,926.22
2017-03-08T01:14:03.874Z,926.24
2017-03-08T01:15:17.598Z,926.26
2017-03-08T01:16:31.324Z,926.27
2017-03-08T01:17:45.065Z,926.34
2017-03-08T01:18:58.759Z,926.37
2017-03-08T01:20:11.951Z,926.35
2017-03-08T01:21:25.849Z,926.41
2017-03-08T01:22:39.604Z,926.33
2017-03-08T01:23:53.346Z,926.29
2017-03-08T01:25:07.039Z,926.24
2017-03-08T01:26:20.761Z,926.2
2017-03-08T01:27:34.474Z,926.23
2017-03-08T01:28:48.156Z,926.22
2017-03-08T01:30:01.866Z,926.22
2017-03-08T01:31:15.604Z,926.26
2017-03-08T01:32:28.734Z,926.18
2017-03-08T01:33:42.497Z,926.13
2017-03-08T01:34:56.279Z,926.12
2017-03-08T01:36:09.984Z,926.11
2017-03-08T01:37:23.705Z,926.1
2017-03-08T01:38:36.843Z,926.08
2017-03-08T01:39:50.540Z,926.09
2017-03-08T01:41:04.280Z,926.09
2017-03-08T01:42:18.007Z,926.2
2017-03-08T01:43:31.730Z,926.26
2017-03-08T01:44:44.874Z,926.31
2017-03-08T01:45:58.626Z,926.34
2017-03-08T01:47:12.324Z,926.37
2017-03-08T01:48:25.448Z,926.42
2017-03-08T01:49:39.223Z,926.48
2017-03-08T01:50:52.951Z,926.47
2017-03-08T01:52:06.714Z,926.52
2017-03-08T01:53:19.819Z,926.46
2017-03-08T01:54:33.547Z,926.56
2017-03-08T01:55:47.284Z,926.54
2017-03-08T01:57:00.994Z,926.58
2017-03-08T01:58:14.733Z,926.69
2017-03-08T01:59:27.308Z,926.68
2017-03-08T02:00:41.055Z,926.76
2017-03-08T02:01:54.796Z,926.81
2017-03-08T02:03:08.527Z,926.84
2017-03-08T02:04:22.303Z,926.91
2017-03-08T02:05:36.017Z,926.86
2017-03-08T02:06:49.181Z,926.83
2017-03-08T02:08:02.879Z,926.86
2017-03-08T02:09:15.979Z,926.78
2017-03-08T02:10:29.709Z,926.79
2017-03-08T02:11:43.404Z,926.76
2017-03-08T02:12:57.121Z,926.78
2017-03-08T02:14:10.287Z,926.84
2017-03-08T02:15:24.028Z,926.83
2017-03-08T02:16:37.181Z,926.88
2017-03-08T02:17:50.897Z,926.86
2017-03-08T02:19:04.590Z,926.87
2017-03-08T02:20:18.336Z,926.87
2017-03-08T02:21:32.069Z,926.86
2017-03-08T02:22:45.763Z,926.88
2017-03-08T02:23:59.471Z,926.93
2017-03-08T02:25:11.462Z,926.99
2017-03-08T02:26:25.187Z,926.96
2017-03-08T02:27:38.967Z,926.99
2017-03-08T02:28:52.713Z,927.1
2017-03-08T02:30:06.566Z,927.08
2017-03-08T02:31:19.764Z,927.11
2017-03-08T02:32:33.490Z,927.14
2017-03-08T02:33:47.231Z,927.13
2017-03-08T02:34:59.759Z,927.13
2017-03-08T02:36:13.471Z,927.1
2017-03-08T02:37:27.443Z,927.14
2017-03-08T02:38:40.584Z,927.11
2017-03-08T02:39:54.316Z,927.21
2017-03-08T02:41:08.080Z,927.2
2017-03-08T02:42:21.848Z,927.27
2017-03-08T02:43:35.911Z,927.28
2017-03-08T02:44:49.630Z,927.29
2017-03-08T02:46:03.346Z,927.27
2017-03-08T02:47:16.587Z,927.16
2017-03-08T02:48:30.322Z,927.19
2017-03-08T02:49:44.098Z,927.1
2017-03-08T02:50:57.951Z,927.12
2017-03-08T02:52:11.691Z,927.06
2017-03-08T02:53:25.453Z,927.01
2017-03-08T02:54:39.190Z,926.97
2017-03-08T02:55:52.902Z,926.9
2017-03-08T02:57:06.633Z,926.95
2017-03-08T02:58:19.742Z,926.94
2017-03-08T02:59:33.511Z,926.96
2017-03-08T03:00:47.283Z,926.94
2017-03-08T03:02:00.994Z,926.91
2017-03-08T03:03:14.781Z,926.89
2017-03-08T03:04:28.544Z,926.83
2017-03-08T03:05:42.324Z,926.82
2017-03-08T03:06:56.091Z,926.73
2017-03-08T03:08:09.871Z,926.67
2017-03-08T03:09:23.958Z,926.7
2017-03-08T03:10:37.677Z,926.71
2017-03-08T03:11:50.813Z,926.63
2017-03-08T03:13:04.596Z,926.68
2017-03-08T03:14:18.367Z,926.62
2017-03-08T03:15:32.567Z,926.6
2017-03-08T03:16:45.697Z,926.57
2017-03-08T03:17:59.426Z,926.53
2017-03-08T03:19:13.284Z,926.51
2017-03-08T03:20:27.050Z,926.51
2017-03-08T03:21:39.628Z,926.49
2017-03-08T03:22:53.371Z,926.48
2017-03-08T03:24:07.109Z,926.45
2017-03-08T03:25:20.442Z,926.46
2017-03-08T03:26:34.163Z,926.46
2017-03-08T03:27:47.867Z,926.44
2017-03-08T03:29:01.018Z,926.4
2017-03-08T03:30:14.139Z,926.39
2017-03-08T03:31:27.013Z,926.37
2017-03-08T03:32:40.138Z,926.35
2017-03-08T03:33:53.860Z,926.3
2017-03-08T03:35:07.084Z,926.29
2017-03-08T03:36:20.826Z,926.3
2017-03-08T03:37:34.662Z,926.28
2017-03-08T03:38:48.390Z,926.25
2017-03-08T03:40:02.100Z,926.24
2017-03-08T03:41:15.423Z,926.2
2017-03-08T03:42:29.180Z,926.22
2017-03-08T03:43:42.905Z,926.24
2017-03-08T03:44:56.624Z,926.26
2017-03-08T03:46:10.331Z,926.25
2017-03-08T03:47:24.116Z,926.24
2017-03-08T03:48:37.855Z,926.17
2017-03-08T03:49:50.965Z,926.17
2017-03-08T03:51:04.111Z,926.18
2017-03-08T03:52:16.645Z,926.15
2017-03-08T03:53:30.407Z,926.18
2017-03-08T03:54:44.097Z,926.21
2017-03-08T03:55:57.796Z,926.26
2017-03-08T03:57:11.568Z,926.3
2017-03-08T03:58:25.317Z,926.33
2017-03-08T03:59:39.140Z,926.31
2017-03-08T04:00:52.868Z,926.31
2017-03-08T04:02:06.600Z,926.32
2017-03-08T04:03:20.067Z,926.27
2017-03-08T04:04:33.842Z,926.26
2017-03-08T04:05:47.558Z,926.3
2017-03-08T04:07:01.294Z,926.25
2017-03-08T04:08:14.446Z,926.24
2017-03-08T04:09:28.326Z,926.24
2017-03-08T04:10:41.645Z,926.26
2017-03-08T04:11:55.364Z,926.25
2017-03-08T04:13:09.067Z,926.23
2017-03-08T04:14:22.745Z,926.21
2017-03-08T04:15:36.473Z,926.16
2017-03-08T04:16:50.221Z,926.13
2017-03-08T04:18:03.928Z,926.13
2017-03-08T04:19:17.043Z,926.11
2017-03-08T04:20:30.783Z,926.09
2017-03-08T04:21:44.484Z,926.12
2017-03-08T04:22:58.211Z,926.09
2017-03-08T04:24:11.998Z,926.08
2017-03-08T04:25:25.719Z,926.06
2017-03-08T04:26:38.816Z,926.06
2017-03-08T04:27:52.537Z,926.02
2017-03-08T04:29:06.294Z,926.01
2017-03-08T04:30:20.040Z,926.02
2017-03-08T04:31:33.751Z,926.01
2017-03-08T04:32:46.865Z,926.06
2017-03-08T04:34:00.564Z,926.07
2017-03-08T04:35:14.310Z,926.05
2017-03-08T04:36:28.023Z,926.02
2017-03-08T04:37:41.240Z,926.05
2017-03-08T04:38:54.926Z,925.99
2017-03-08T04:40:08.614Z,926.01
2017-03-08T04:41:22.331Z,925.98
2017-03-08T04:42:36.054Z,925.97
2017-03-08T04:43:49.779Z,925.99
2017-03-08T04:45:03.489Z,925.99
2017-03-08T04:46:16.662Z,926.02
2017-03-08T04:47:29.805Z,926.01
2017-03-08T04:48:43.507Z,926.04
2017-03-08T04:49:57.235Z,926.02
2017-03-08T04:51:10.969Z,926
2017-03-08T04:52:24.712Z,925.99
2017-03-08T04:53:38.436Z,925.92
2017-03-08T04:54:52.173Z,925.93
2017-03-08T04:56:05.865Z,925.94
2017-03-08T04:57:18.989Z,925.89
2017-03-08T04:58:32.704Z,925.88
2017-03-08T04:59:46.455Z,925.81
2017-03-08T05:01:00.180Z,925.83
2017-03-08T05:02:13.913Z,925.84
2017-03-08T05:03:26.986Z,925.82
2017-03-08T05:04:40.693Z,925.8
2017-03-08T05:05:54.429Z,925.82
2017-03-08T05:07:07.008Z,925.8
2017-03-08T05:08:20.123Z,925.77
2017-03-08T05:09:33.837Z,925.78
2017-03-08T05:10:46.397Z,925.77
2017-03-08T05:12:00.129Z,925.71
2017-03-08T05:13:13.233Z,925.71
2017-03-08T05:14:26.981Z,925.68
2017-03-08T05:15:40.682Z,925.67
2017-03-08T05:16:54.376Z,925.64
2017-03-08T05:18:08.107Z,925.67
2017-03-08T05:19:20.650Z,925.62
2017-03-08T05:20:34.373Z,925.66
2017-03-08T05:21:48.054Z,925.64
2017-03-08T05:23:01.750Z,925.71
2017-03-08T05:24:15.497Z,925.65
2017-03-08T05:25:28.648Z,925.66
2017-03-08T05:26:42.431Z,925.68
2017-03-08T05:27:56.151Z,925.7
2017-03-08T05:29:09.890Z,925.69
2017-03-08T05:30:23.642Z,925.71
2017-03-08T05:31:37.361Z,925.68
2017-03-08T05:32:51.051Z,925.68
2017-03-08T05:34:04.790Z,925.64
2017-03-08T05:35:17.913Z,925.62
2017-03-08T05:36:31.627Z,925.59
2017-03-08T05:37:45.324Z,925.59
2017-03-08T05:38:59.053Z,925.58
2017-03-08T05:40:12.802Z,925.54
2017-03-08T05:41:26.544Z,925.52
2017-03-08T05:42:40.285Z,925.45
2017-03-08T05:43:54.016Z,925.4
2017-03-08T05:45:07.125Z,925.35
2017-03-08T05:46:20.840Z,925.23
2017-03-08T05:47:34.555Z,925.21
2017-03-08T05:48:48.277Z,925.25
2017-03-08T05:50:02.025Z,925.21
2017-03-08T05:51:15.150Z,925.22
2017-03-08T05:52:28.325Z,925.22
2017-03-08T05:53:40.860Z,925.23
2017-03-08T05:54:54.570Z,925.26
2017-03-08T05:56:07.656Z,925.22
2017-03-08T05:57:21.346Z,925.22
2017-03-08T05:58:35.124Z,925.21
2017-03-08T05:59:48.852Z,925.19
2017-03-08T06:01:02.552Z,925.17
2017-03-08T06:02:16.273Z,925.2
2017-03-08T06:03:29.471Z,925.21
2017-03-08T06:04:42.572Z,925.19
2017-03-08T06:05:56.319Z,925.18
2017-03-08T06:07:09.435Z,925.14
2017-03-08T06:08:22.547Z,925.19
2017-03-08T06:09:35.669Z,925.15
2017-03-08T06:10:49.357Z,925.12
2017-03-08T06:12:03.047Z,925.1
2017-03-08T06:13:16.770Z,925.12
2017-03-08T06:14:30.510Z,925.09
2017-03-08T06:15:43.041Z,925.13
2017-03-08T06:16:56.762Z,925.13
2017-03-08T06:18:10.457Z,925.13
2017-03-08T06:19:23.586Z,925.15
2017-03-08T06:20:37.293Z,925.16
2017-03-08T06:21:51.002Z,925.15
2017-03-08T06:23:04.784Z,925.11
2017-03-08T06:24:18.520Z,925.1
2017-03-08T06:25:31.056Z,925.11
2017-03-08T06:26:44.759Z,925.06
2017-03-08T06:27:58.480Z,925.06
2017-03-08T06:29:12.213Z,925.05
2017-03-08T06:30:24.720Z,925.05
2017-03-08T06:31:38.433Z,925.04
2017-03-08T06:32:52.129Z,925.11
2017-03-08T06:34:05.836Z,925.1
2017-03-08T06:35:19.544Z,925.12
2017-03-08T06:36:33.247Z,925.17
2017-03-08T06:37:46.953Z,925.18
2017-03-08T06:39:00.661Z,925.28
2017-03-08T06:40:14.330Z,925.29
2017-03-08T06:41:28.078Z,925.33
2017-03-08T06:42:41.197Z,925.39
2017-03-08T06:43:54.898Z,925.38
2017-03-08T06:45:08.615Z,925.42
2017-03-08T06:46:22.308Z,925.44
2017-03-08T06:47:35.983Z,925.48
2017-03-08T06:48:49.724Z,925.54
2017-03-08T06:50:02.886Z,925.55
2017-03-08T06:51:16.641Z,925.55
2017-03-08T06:52:29.797Z,925.54
2017-03-08T06:53:43.560Z,925.56
2017-03-08T06:54:57.259Z,925.54
2017-03-08T06:56:10.380Z,925.53
2017-03-08T06:57:23.495Z,925.47
2017-03-08T06:58:37.248Z,925.5
2017-03-08T06:59:50.956Z,925.49
2017-03-08T07:01:04.083Z,925.48
2017-03-08T07:02:17.205Z,925.45
2017-03-08T07:03:30.305Z,925.44
2017-03-08T07:04:43.976Z,925.4
2017-03-08T07:05:57.764Z,925.39
2017-03-08T07:07:11.490Z,925.34
2017-03-08T07:08:25.213Z,925.32
2017-03-08T07:09:38.941Z,925.34
2017-03-08T07:10:52.699Z,925.3
2017-03-08T07:12:06.423Z,925.28
2017-03-08T07:13:19.594Z,925.24
2017-03-08T07:14:32.746Z,925.26
2017-03-08T07:15:46.479Z,925.24
2017-03-08T07:17:00.226Z,925.23
2017-03-08T07:18:13.979Z,925.16
2017-03-08T07:19:27.683Z,925.19
2017-03-08T07:20:41.389Z,925.21
2017-03-08T07:21:55.102Z,925.24
2017-03-08T07:23:08.225Z,925.2
2017-03-08T07:24:21.938Z,925.2
2017-03-08T07:25:35.643Z,925.2
2017-03-08T07:26:49.434Z,925.19
2017-03-08T07:28:03.177Z,925.23
2017-03-08T07:29:16.907Z,925.19
2017-03-08T07:30:30.633Z,925.23
2017-03-08T07:31:44.389Z,925.27
2017-03-08T07:32:58.130Z,925.31
2017-03-08T07:34:11.233Z,925.29
2017-03-08T07:35:24.966Z,925.32
2017-03-08T07:36:38.690Z,925.27
2017-03-08T07:37:52.442Z,925.35
2017-03-08T07:39:06.143Z,925.35
2017-03-08T07:40:19.844Z,925.25
2017-03-08T07:41:33.552Z,925.34
2017-03-08T07:42:47.295Z,925.34
2017-03-08T07:44:01.003Z,925.29
2017-03-08T07:45:14.720Z,925.33
2017-03-08T07:46:27.833Z,925.32
2017-03-08T07:47:41.541Z,925.31
2017-03-08T07:48:54.667Z,925.32
2017-03-08T07:50:08.393Z,925.31
2017-03-08T07:51:21.562Z,925.29
2017-03-08T07:52:35.290Z,925.31
2017-03-08T07:53:48.985Z,925.31
2017-03-08T07:55:02.706Z,925.35
2017-03-08T07:56:16.413Z,925.32
2017-03-08T07:57:28.971Z,925.31
2017-03-08T07:58:42.653Z,925.33
2017-03-08T07:59:56.404Z,925.26
2017-03-08T08:01:10.107Z,925.31
2017-03-08T08:02:23.226Z,925.28
2017-03-08T08:03:36.919Z,925.33
2017-03-08T08:04:50.627Z,925.33
2017-03-08T08:06:03.741Z,925.31
2017-03-08T08:07:17.447Z,925.33
2017-03-08T08:08:30.554Z,925.3
2017-03-08T08:09:44.251Z,925.32
2017-03-08T08:10:57.333Z,925.28
2017-03-08T08:12:10.440Z,925.31
2017-03-08T08:13:23.592Z,925.34
2017-03-08T08:14:37.293Z,925.34
2017-03-08T08:15:51.070Z,925.36
2017-03-08T08:17:04.167Z,925.4
2017-03-08T08:18:17.877Z,925.39
2017-03-08T08:19:31.591Z,925.41
2017-03-08T08:20:45.355Z,925.39
2017-03-08T08:21:59.076Z,925.4
2017-03-08T08:23:12.226Z,925.34
2017-03-08T08:24:25.935Z,925.36
2017-03-08T08:25:39.016Z,925.35
2017-03-08T08:26:52.710Z,925.3
2017-03-08T08:28:06.459Z,925.27
2017-03-08T08:29:20.236Z,925.28
2017-03-08T08:30:33.975Z,925.26
2017-03-08T08:31:47.682Z,925.29
2017-03-08T08:33:01.424Z,925.32
2017-03-08T08:34:15.143Z,925.34
2017-03-08T08:35:28.837Z,925.38
2017-03-08T08:36:41.364Z,925.38
2017-03-08T08:37:54.461Z,925.41
2017-03-08T08:39:08.238Z,925.47
2017-03-08T08:40:22.006Z,925.48
2017-03-08T08:41:35.175Z,925.53
2017-03-08T08:42:48.888Z,925.57
2017-03-08T08:44:02.596Z,925.55
2017-03-08T08:45:16.299Z,925.58
2017-03-08T08:46:28.840Z,925.59
2017-03-08T08:47:42.573Z,925.58
2017-03-08T08:48:56.296Z,925.61
2017-03-08T08:50:10.010Z,925.63
2017-03-08T08:51:23.771Z,925.6
2017-03-08T08:52:37.513Z,925.65
2017-03-08T08:53:51.264Z,925.63
2017-03-08T08:55:05.000Z,925.6
2017-03-08T08:56:18.771Z,925.66
2017-03-08T08:57:32.471Z,925.69
2017-03-08T08:58:46.178Z,925.69
2017-03-08T08:59:59.901Z,925.67
2017-03-08T09:01:13.624Z,925.7
2017-03-08T09:02:27.326Z,925.7
2017-03-08T09:03:40.435Z,925.69
2017-03-08T09:04:54.158Z,925.74
2017-03-08T09:06:07.286Z,925.75
2017-03-08T09:07:21.026Z,925.76
2017-03-08T09:08:34.743Z,925.69
2017-03-08T09:09:48.453Z,925.72
2017-03-08T09:11:02.198Z,925.72
2017-03-08T09:12:15.970Z,925.73
2017-03-08T09:13:29.742Z,925.75
2017-03-08T09:14:43.517Z,925.73
2017-03-08T09:15:57.206Z,925.75
2017-03-08T09:17:10.906Z,925.73
2017-03-08T09:18:24.612Z,925.71
2017-03-08T09:19:38.317Z,925.75
2017-03-08T09:20:51.994Z,925.72
2017-03-08T09:22:05.721Z,925.75
2017-03-08T09:23:18.217Z,925.81
2017-03-08T09:24:31.342Z,925.74
2017-03-08T09:25:44.471Z,925.79
2017-03-08T09:26:58.161Z,925.8
2017-03-08T09:28:11.871Z,925.79
2017-03-08T09:29:25.583Z,925.84
2017-03-08T09:30:38.661Z,925.83
2017-03-08T09:31:51.779Z,925.91
2017-03-08T09:33:05.518Z,925.93
2017-03-08T09:34:19.247Z,925.93
2017-03-08T09:35:32.378Z,925.92
2017-03-08T09:36:46.085Z,925.92
2017-03-08T09:37:59.780Z,925.93
2017-03-08T09:39:13.483Z,925.92
2017-03-08T09:40:27.186Z,925.92
2017-03-08T09:41:40.909Z,925.9
2017-03-08T09:42:54.040Z,925.93
2017-03-08T09:44:07.755Z,925.95
2017-03-08T09:45:21.464Z,925.97
2017-03-08T09:46:35.174Z,926.01
2017-03-08T09:47:48.886Z,925.96
2017-03-08T09:49:01.968Z,926.04
2017-03-08T09:50:15.665Z,926.06
2017-03-08T09:51:29.390Z,926.06
2017-03-08T09:52:43.089Z,926.02
2017-03-08T09:53:56.810Z,926.05
2017-03-08T09:55:10.522Z,926.12
2017-03-08T09:56:24.267Z,926.1
2017-03-08T09:57:37.369Z,926.1
2017-03-08T09:58:51.089Z,926.12
2017-03-08T10:00:04.844Z,926.11
2017-03-08T10:01:18.559Z,926.17
2017-03-08T10:02:32.250Z,926.19
2017-03-08T10:03:45.965Z,926.17
2017-03-08T10:04:59.689Z,926.19
2017-03-08T10:06:12.816Z,926.19
2017-03-08T10:07:25.925Z,926.21
2017-03-08T10:08:39.653Z,926.22
2017-03-08T10:09:53.364Z,926.22
2017-03-08T10:11:07.088Z,926.23
2017-03-08T10:12:20.210Z,926.23
2017-03-08T10:13:33.947Z,926.25
2017-03-08T10:14:47.672Z,926.28
2017-03-08T10:16:01.388Z,926.24
2017-03-08T10:17:15.093Z,926.3
2017-03-08T10:18:28.824Z,926.35
2017-03-08T10:19:42.557Z,926.35
2017-03-08T10:20:55.688Z,926.37
2017-03-08T10:22:09.417Z,926.39
2017-03-08T10:23:23.119Z,926.37
2017-03-08T10:24:36.836Z,926.39
2017-03-08T10:25:50.531Z,926.37
2017-03-08T10:27:03.633Z,926.38
2017-03-08T10:28:17.365Z,926.44
2017-03-08T10:29:31.103Z,926.44
2017-03-08T10:30:44.817Z,926.47
2017-03-08T10:31:58.522Z,926.46
2017-03-08T10:33:12.250Z,926.48
2017-03-08T10:34:25.944Z,926.45
2017-03-08T10:35:39.675Z,926.45
2017-03-08T10:36:53.443Z,926.46
2017-03-08T10:38:07.165Z,926.5
2017-03-08T10:39:20.898Z,926.53
2017-03-08T10:40:34.634Z,926.52
2017-03-08T10:41:48.335Z,926.55
2017-03-08T10:43:02.080Z,926.54
2017-03-08T10:44:15.839Z,926.54
2017-03-08T10:45:28.998Z,926.61
2017-03-08T10:46:42.718Z,926.62
2017-03-08T10:47:55.865Z,926.64
2017-03-08T10:49:09.597Z,926.6
2017-03-08T10:50:22.708Z,926.61
2017-03-08T10:51:36.420Z,926.59
2017-03-08T10:52:49.526Z,926.63
2017-03-08T10:54:03.225Z,926.63
2017-03-08T10:55:16.950Z,926.64
2017-03-08T10:56:30.703Z,926.6
2017-03-08T10:57:44.437Z,926.64
2017-03-08T10:58:58.151Z,926.66
2017-03-08T11:00:11.914Z,926.56
2017-03-08T11:01:25.675Z,926.61
2017-03-08T11:02:39.396Z,926.69
2017-03-08T11:03:52.531Z,926.69
2017-03-08T11:05:06.242Z,926.65
2017-03-08T11:06:19.970Z,926.74
2017-03-08T11:07:33.695Z,926.73
2017-03-08T11:08:47.430Z,926.65
2017-03-08T11:10:00.551Z,926.72
2017-03-08T11:11:13.648Z,926.69
2017-03-08T11:12:27.385Z,926.76
2017-03-08T11:13:41.138Z,926.7
2017-03-08T11:14:54.269Z,926.75
2017-03-08T11:16:06.832Z,926.78
2017-03-08T11:17:20.570Z,926.78
2017-03-08T11:18:34.332Z,926.81
2017-03-08T11:19:48.040Z,926.78
2017-03-08T11:21:01.790Z,926.84
2017-03-08T11:22:15.545Z,926.86
2017-03-08T11:23:28.075Z,926.87
2017-03-08T11:24:40.651Z,926.9
2017-03-08T11:25:54.400Z,926.91
2017-03-08T11:27:07.558Z,926.87
2017-03-08T11:28:21.292Z,926.94
2017-03-08T11:29:35.070Z,926.91
2017-03-08T11:30:48.174Z,926.94
2017-03-08T11:32:02.155Z,926.91
2017-03-08T11:33:15.284Z,926.94
2017-03-08T11:34:28.989Z,926.93
2017-03-08T11:35:42.096Z,926.93
2017-03-08T11:36:55.771Z,926.96
2017-03-08T11:38:09.490Z,926.95
2017-03-08T11:39:22.648Z,927.01
2017-03-08T11:40:36.397Z,927.03
2017-03-08T11:41:49.503Z,927
2017-03-08T11:43:03.264Z,927.06
2017-03-08T11:44:16.975Z,927.05
2017-03-08T11:45:30.688Z,927.03
2017-03-08T11:46:44.408Z,927.1
2017-03-08T11:47:58.149Z,927.08
2017-03-08T11:49:11.862Z,927.11
2017-03-08T11:50:25.572Z,927.08
2017-03-08T11:51:39.305Z,927.14
2017-03-08T11:52:53.012Z,927.14
2017-03-08T11:54:06.771Z,927.13
2017-03-08T11:55:20.481Z,927.15
2017-03-08T11:56:34.253Z,927.16
2017-03-08T11:57:48.022Z,927.16
2017-03-08T11:59:01.147Z,927.14
2017-03-08T12:00:14.883Z,927.12
2017-03-08T12:01:28.026Z,927.13
2017-03-08T12:02:41.187Z,927.15
2017-03-08T12:03:54.369Z,927.13
2017-03-08T12:05:07.526Z,927.16
2017-03-08T12:06:21.227Z,927.15
2017-03-08T12:07:34.966Z,927.15
2017-03-08T12:08:48.732Z,927.12
2017-03-08T12:10:02.554Z,927.06
2017-03-08T12:11:16.271Z,927.09
2017-03-08T12:12:30.005Z,927.17
2017-03-08T12:13:43.730Z,927.08
2017-03-08T12:14:57.429Z,927.12
2017-03-08T12:16:10.541Z,927.14
2017-03-08T12:17:23.653Z,927.11
2017-03-08T12:18:37.398Z,927.19
2017-03-08T12:19:51.115Z,927.2
2017-03-08T12:21:04.216Z,927.2
2017-03-08T12:22:17.945Z,927.19
2017-03-08T12:23:31.727Z,927.18
2017-03-08T12:24:44.854Z,927.23
2017-03-08T12:25:58.437Z,927.16
2017-03-08T12:27:12.241Z,927.24
2017-03-08T12:28:25.972Z,927.24
2017-03-08T12:29:39.108Z,927.26
2017-03-08T12:30:52.248Z,927.21
2017-03-08T12:32:05.990Z,927.25
2017-03-08T12:33:19.141Z,927.19
2017-03-08T12:34:32.259Z,927.19
2017-03-08T12:35:45.958Z,927.15
2017-03-08T12:36:59.649Z,927.15
2017-03-08T12:38:13.355Z,927.19
2017-03-08T12:39:27.163Z,927.25
2017-03-08T12:40:40.875Z,927.27
2017-03-08T12:41:54.061Z,927.24
2017-03-08T12:43:07.189Z,927.24
2017-03-08T12:44:20.912Z,927.3
2017-03-08T12:45:34.644Z,927.33
2017-03-08T12:46:47.762Z,927.33
2017-03-08T12:48:01.638Z,927.28
2017-03-08T12:49:16.531Z,927.36
2017-03-08T12:50:30.268Z,927.35
2017-03-08T12:51:43.446Z,927.35
2017-03-08T12:52:57.227Z,927.37
2017-03-08T12:54:11.096Z,927.29
2017-03-08T12:55:24.787Z,927.31
2017-03-08T12:56:37.702Z,927.32
2017-03-08T12:57:51.424Z,927.31
2017-03-08T12:59:04.539Z,927.29
2017-03-08T13:00:17.054Z,927.27
2017-03-08T13:01:30.180Z,927.22
2017-03-08T13:02:43.309Z,927.24
2017-03-08T13:03:56.452Z,927.17
2017-03-08T13:05:09.574Z,927.17
2017-03-08T13:06:23.313Z,927.23
2017-03-08T13:07:37.032Z,927.14
2017-03-08T13:08:50.157Z,927.22
2017-03-08T13:10:03.899Z,927.18
2017-03-08T13:11:16.426Z,927.07
2017-03-08T13:12:29.650Z,927.12
2017-03-08T13:13:42.841Z,927.15
2017-03-08T13:14:56.582Z,927.08
2017-03-08T13:16:10.317Z,927.05
2017-03-08T13:17:22.864Z,927.05
2017-03-08T13:18:36.595Z,927.07
2017-03-08T13:19:50.338Z,927.02
2017-03-08T13:21:03.475Z,927.04
2017-03-08T13:22:17.213Z,926.94
2017-03-08T13:23:31.968Z,926.95
2017-03-08T13:24:46.336Z,926.96
2017-03-08T13:26:00.292Z,926.94
2017-03-08T13:27:14.032Z,926.92
2017-03-08T13:28:27.811Z,926.83
2017-03-08T13:29:40.943Z,926.81
2017-03-08T13:30:54.736Z,926.86
2017-03-08T13:32:08.693Z,926.84
2017-03-08T13:33:23.691Z,926.82
2017-03-08T13:34:39.416Z,926.78
2017-03-08T13:35:53.985Z,926.82
2017-03-08T13:37:09.116Z,926.84
2017-03-08T13:38:23.247Z,926.88
2017-03-08T13:39:37.006Z,926.83
2017-03-08T13:40:50.727Z,926.78
2017-03-08T13:42:05.044Z,926.73
2017-03-08T13:43:19.594Z,926.82
2017-03-08T13:44:34.336Z,926.8
2017-03-08T13:45:48.698Z,926.79
2017-03-08T13:47:02.834Z,926.77
2017-03-08T13:48:16.967Z,926.83
2017-03-08T13:49:30.687Z,926.75
2017-03-08T13:50:45.304Z,926.78
2017-03-08T13:51:59.686Z,926.8
2017-03-08T13:53:13.458Z,926.85
2017-03-08T13:54:26.065Z,926.8
2017-03-08T13:55:39.443Z,926.83
2017-03-08T13:56:53.598Z,926.87
2017-03-08T13:58:08.149Z,926.85
2017-03-08T13:59:21.924Z,926.89
2017-03-08T14:00:35.110Z,926.87
2017-03-08T14:01:49.506Z,926.83
2017-03-08T14:03:03.490Z,926.82
2017-03-08T14:04:17.509Z,926.88
2017-03-08T14:05:31.469Z,926.68
2017-03-08T14:06:45.609Z,926.85
2017-03-08T14:07:59.994Z,926.83
2017-03-08T14:09:14.568Z,926.89
2017-03-08T14:10:28.389Z,926.84
2017-03-08T14:11:40.960Z,926.79
2017-03-08T14:12:54.990Z,926.68
2017-03-08T14:14:09.769Z,926.68
2017-03-08T14:15:23.909Z,926.68
2017-03-08T14:16:38.647Z,926.78
2017-03-08T14:17:52.894Z,926.71
2017-03-08T14:19:07.200Z,926.76
2017-03-08T14:20:21.354Z,926.72
2017-03-08T14:21:36.125Z,926.7
2017-03-08T14:22:50.742Z,926.69
2017-03-08T14:24:05.455Z,926.72
2017-03-08T14:25:19.733Z,926.74
2017-03-08T14:26:33.503Z,926.76
2017-03-08T14:27:46.821Z,926.71
2017-03-08T14:29:00.756Z,926.66
2017-03-08T14:30:13.867Z,926.65
2017-03-08T14:31:27.088Z,926.6
2017-03-08T14:32:41.139Z,926.66
2017-03-08T14:33:54.908Z,926.65
2017-03-08T14:35:08.701Z,926.6
2017-03-08T14:36:22.477Z,926.63
2017-03-08T14:37:36.531Z,926.61
2017-03-08T14:38:49.920Z,926.63
2017-03-08T14:40:03.075Z,926.64
2017-03-08T14:41:16.908Z,926.65
2017-03-08T14:42:29.411Z,926.62
2017-03-08T14:43:43.232Z,926.63
2017-03-08T14:44:55.783Z,926.57
2017-03-08T14:46:09.497Z,926.58
2017-03-08T14:47:23.204Z,926.5
2017-03-08T14:48:36.333Z,926.53
2017-03-08T14:49:49.460Z,926.54
2017-03-08T14:51:02.617Z,926.53
2017-03-08T14:52:15.766Z,926.52
2017-03-08T14:53:29.474Z,926.5
2017-03-08T14:54:42.710Z,926.46
2017-03-08T14:55:55.947Z,926.43
2017-03-08T14:57:09.070Z,926.35
2017-03-08T14:58:22.838Z,926.37
2017-03-08T14:59:35.983Z,926.39
2017-03-08T15:00:49.735Z,926.33
2017-03-08T15:02:03.550Z,926.28
2017-03-08T15:03:16.115Z,926.24
2017-03-08T15:04:29.813Z,926.22
2017-03-08T15:05:43.532Z,926.18
2017-03-08T15:06:57.263Z,926.17
2017-03-08T15:08:10.976Z,926.15
2017-03-08T15:09:24.727Z,926.13
2017-03-08T15:10:38.452Z,926.12
2017-03-08T15:11:52.161Z,926.14
2017-03-08T15:13:05.888Z,926.05
2017-03-08T15:14:19.018Z,925.99
2017-03-08T15:15:32.155Z,926.06
2017-03-08T15:16:45.883Z,926.02
2017-03-08T15:17:59.647Z,926.03
2017-03-08T15:19:13.415Z,925.99
2017-03-08T15:20:25.421Z,925.98
2017-03-08T15:21:39.164Z,926
2017-03-08T15:22:52.908Z,926.01
2017-03-08T15:24:06.650Z,925.98
2017-03-08T15:25:20.815Z,925.99
2017-03-08T15:26:33.689Z,925.98
2017-03-08T15:27:47.471Z,925.99
2017-03-08T15:29:01.214Z,925.9
2017-03-08T15:30:14.932Z,925.89
2017-03-08T15:31:28.031Z,925.93
2017-03-08T15:32:41.169Z,925.89